sensor_id;sensor_type;location;lat;lon;timestamp;P1;durP1;ratioP1;P2;durP2;ratioP2
44116;SDS011;29781;49.480;8.512;2023-09-12T00:00:07;16.70;;;8.60;;
44116;SDS011;29781;49.480;8.512;2023-09-12T00:02:32;21.95;;;9.68;;
44116;SDS011;29781;49.480;8.512;2023-09-12T00:04:58;16.08;;;8.88;;
44116;SDS011;29781;49.480;8.512;2023-09-12T00:07:24;18.75;;;9.35;;
44116;SDS011;29781;49.480;8.512;2023-09-12T00:09:49;20.13;;;9.63;;
44116;SDS011;29781;49.480;8.512;2023-09-12T00:12:15;17.80;;;9.43;;
44116;SDS011;29781;49.480;8.512;2023-09-12T00:14:41;15.45;;;9.40;;
44116;SDS011;29781;49.480;8.512;2023-09-12T00:17:07;18.98;;;9.27;;
44116;SDS011;29781;49.480;8.512;2023-09-12T00:19:32;18.48;;;9.48;;
44116;SDS011;29781;49.480;8.512;2023-09-12T00:21:58;21.45;;;9.70;;
44116;SDS011;29781;49.480;8.512;2023-09-12T00:24:24;17.40;;;9.30;;
44116;SDS011;29781;49.480;8.512;2023-09-12T00:26:49;14.48;;;10.38;;
44116;SDS011;29781;49.480;8.512;2023-09-12T00:29:15;18.88;;;9.50;;
44116;SDS011;29781;49.480;8.512;2023-09-12T00:31:40;19.98;;;9.30;;
44116;SDS011;29781;49.480;8.512;2023-09-12T00:34:06;21.08;;;9.70;;
44116;SDS011;29781;49.480;8.512;2023-09-12T00:36:31;21.85;;;9.35;;
44116;SDS011;29781;49.480;8.512;2023-09-12T00:38:58;24.80;;;10.38;;
44116;SDS011;29781;49.480;8.512;2023-09-12T00:41:23;20.25;;;9.73;;
44116;SDS011;29781;49.480;8.512;2023-09-12T00:43:49;15.45;;;9.65;;
44116;SDS011;29781;49.480;8.512;2023-09-12T00:46:20;21.02;;;10.45;;
44116;SDS011;29781;49.480;8.512;2023-09-12T00:48:48;15.80;;;9.25;;
44116;SDS011;29781;49.480;8.512;2023-09-12T00:51:15;15.88;;;9.45;;
44116;SDS011;29781;49.480;8.512;2023-09-12T00:53:43;21.75;;;9.80;;
44116;SDS011;29781;49.480;8.512;2023-09-12T00:56:08;15.32;;;8.77;;
44116;SDS011;29781;49.480;8.512;2023-09-12T00:58:34;16.02;;;9.40;;
44116;SDS011;29781;49.480;8.512;2023-09-12T01:01:00;14.40;;;9.48;;
44116;SDS011;29781;49.480;8.512;2023-09-12T01:03:27;19.30;;;9.15;;
44116;SDS011;29781;49.480;8.512;2023-09-12T01:05:52;17.30;;;8.93;;
44116;SDS011;29781;49.480;8.512;2023-09-12T01:08:18;17.40;;;9.63;;
44116;SDS011;29781;49.480;8.512;2023-09-12T01:10:44;14.48;;;9.18;;
44116;SDS011;29781;49.480;8.512;2023-09-12T01:13:15;14.50;;;10.02;;
44116;SDS011;29781;49.480;8.512;2023-09-12T01:15:42;19.35;;;9.70;;
44116;SDS011;29781;49.480;8.512;2023-09-12T01:18:08;23.23;;;10.18;;
44116;SDS011;29781;49.480;8.512;2023-09-12T01:20:34;18.45;;;10.50;;
44116;SDS011;29781;49.480;8.512;2023-09-12T01:23:11;27.55;;;10.38;;
44116;SDS011;29781;49.480;8.512;2023-09-12T01:28:45;20.17;;;10.13;;
44116;SDS011;29781;49.480;8.512;2023-09-12T01:31:12;21.02;;;10.88;;
44116;SDS011;29781;49.480;8.512;2023-09-12T01:33:40;24.50;;;10.25;;
44116;SDS011;29781;49.480;8.512;2023-09-12T01:36:05;24.13;;;10.07;;
44116;SDS011;29781;49.480;8.512;2023-09-12T01:38:31;20.90;;;10.13;;
44116;SDS011;29781;49.480;8.512;2023-09-12T01:40:56;16.58;;;9.70;;
44116;SDS011;29781;49.480;8.512;2023-09-12T01:43:23;15.02;;;9.60;;
44116;SDS011;29781;49.480;8.512;2023-09-12T01:45:52;21.00;;;10.68;;
44116;SDS011;29781;49.480;8.512;2023-09-12T01:48:20;18.75;;;9.95;;
44116;SDS011;29781;49.480;8.512;2023-09-12T01:50:48;17.95;;;10.25;;
44116;SDS011;29781;49.480;8.512;2023-09-12T01:53:14;19.15;;;9.55;;
44116;SDS011;29781;49.480;8.512;2023-09-12T01:55:43;21.30;;;9.65;;
44116;SDS011;29781;49.480;8.512;2023-09-12T01:58:10;20.95;;;9.18;;
44116;SDS011;29781;49.480;8.512;2023-09-12T02:00:37;17.50;;;9.45;;
44116;SDS011;29781;49.480;8.512;2023-09-12T02:03:04;20.77;;;9.63;;
44116;SDS011;29781;49.480;8.512;2023-09-12T02:05:30;16.13;;;9.35;;
44116;SDS011;29781;49.480;8.512;2023-09-12T02:07:55;18.58;;;9.65;;
44116;SDS011;29781;49.480;8.512;2023-09-12T02:10:21;21.13;;;10.35;;
44116;SDS011;29781;49.480;8.512;2023-09-12T02:12:46;26.52;;;11.25;;
44116;SDS011;29781;49.480;8.512;2023-09-12T02:15:12;19.42;;;9.90;;
44116;SDS011;29781;49.480;8.512;2023-09-12T02:17:38;18.63;;;10.30;;
44116;SDS011;29781;49.480;8.512;2023-09-12T02:20:05;15.82;;;8.82;;
44116;SDS011;29781;49.480;8.512;2023-09-12T02:22:34;17.00;;;9.45;;
44116;SDS011;29781;49.480;8.512;2023-09-12T02:25:00;16.13;;;9.25;;
44116;SDS011;29781;49.480;8.512;2023-09-12T02:27:27;19.08;;;9.15;;
44116;SDS011;29781;49.480;8.512;2023-09-12T02:29:53;16.38;;;9.85;;
44116;SDS011;29781;49.480;8.512;2023-09-12T02:32:18;18.98;;;10.35;;
44116;SDS011;29781;49.480;8.512;2023-09-12T02:34:44;22.52;;;9.90;;
44116;SDS011;29781;49.480;8.512;2023-09-12T02:37:09;21.10;;;11.40;;
44116;SDS011;29781;49.480;8.512;2023-09-12T02:39:35;23.80;;;8.82;;
44116;SDS011;29781;49.480;8.512;2023-09-12T02:42:00;17.40;;;9.55;;
44116;SDS011;29781;49.480;8.512;2023-09-12T02:44:26;25.00;;;9.60;;
44116;SDS011;29781;49.480;8.512;2023-09-12T02:46:51;20.70;;;9.98;;
44116;SDS011;29781;49.480;8.512;2023-09-12T02:49:17;17.40;;;8.88;;
44116;SDS011;29781;49.480;8.512;2023-09-12T02:51:42;12.43;;;9.18;;
44116;SDS011;29781;49.480;8.512;2023-09-12T02:54:08;17.35;;;9.43;;
44116;SDS011;29781;49.480;8.512;2023-09-12T02:56:33;21.30;;;9.50;;
44116;SDS011;29781;49.480;8.512;2023-09-12T02:58:59;16.70;;;9.30;;
44116;SDS011;29781;49.480;8.512;2023-09-12T03:01:25;21.10;;;10.07;;
44116;SDS011;29781;49.480;8.512;2023-09-12T03:03:53;19.77;;;9.40;;
44116;SDS011;29781;49.480;8.512;2023-09-12T03:06:19;25.10;;;9.73;;
44116;SDS011;29781;49.480;8.512;2023-09-12T03:08:45;20.95;;;9.75;;
44116;SDS011;29781;49.480;8.512;2023-09-12T03:11:12;23.52;;;9.68;;
44116;SDS011;29781;49.480;8.512;2023-09-12T03:13:38;12.57;;;8.60;;
44116;SDS011;29781;49.480;8.512;2023-09-12T03:16:05;20.95;;;9.30;;
44116;SDS011;29781;49.480;8.512;2023-09-12T03:18:34;20.05;;;9.90;;
44116;SDS011;29781;49.480;8.512;2023-09-12T03:21:00;19.35;;;9.77;;
44116;SDS011;29781;49.480;8.512;2023-09-12T03:23:25;14.77;;;9.05;;
44116;SDS011;29781;49.480;8.512;2023-09-12T03:25:52;20.38;;;10.27;;
44116;SDS011;29781;49.480;8.512;2023-09-12T03:28:17;21.75;;;9.55;;
44116;SDS011;29781;49.480;8.512;2023-09-12T03:30:43;17.50;;;9.88;;
44116;SDS011;29781;49.480;8.512;2023-09-12T03:33:08;18.23;;;9.82;;
44116;SDS011;29781;49.480;8.512;2023-09-12T03:35:34;16.63;;;8.55;;
44116;SDS011;29781;49.480;8.512;2023-09-12T03:38:00;17.70;;;9.85;;
44116;SDS011;29781;49.480;8.512;2023-09-12T03:40:28;17.42;;;9.45;;
44116;SDS011;29781;49.480;8.512;2023-09-12T03:42:55;18.65;;;10.50;;
44116;SDS011;29781;49.480;8.512;2023-09-12T03:45:21;14.75;;;8.88;;
44116;SDS011;29781;49.480;8.512;2023-09-12T03:47:46;21.13;;;10.20;;
44116;SDS011;29781;49.480;8.512;2023-09-12T03:50:12;21.42;;;10.25;;
44116;SDS011;29781;49.480;8.512;2023-09-12T03:52:39;23.42;;;11.05;;
44116;SDS011;29781;49.480;8.512;2023-09-12T03:55:04;20.08;;;11.30;;
44116;SDS011;29781;49.480;8.512;2023-09-12T03:57:30;20.95;;;10.57;;
44116;SDS011;29781;49.480;8.512;2023-09-12T03:59:56;23.10;;;10.07;;
44116;SDS011;29781;49.480;8.512;2023-09-12T04:02:22;20.25;;;10.82;;
44116;SDS011;29781;49.480;8.512;2023-09-12T04:04:48;20.60;;;10.25;;
44116;SDS011;29781;49.480;8.512;2023-09-12T04:07:13;15.52;;;9.70;;
44116;SDS011;29781;49.480;8.512;2023-09-12T04:09:39;19.98;;;10.77;;
44116;SDS011;29781;49.480;8.512;2023-09-12T04:12:04;21.30;;;10.13;;
44116;SDS011;29781;49.480;8.512;2023-09-12T04:14:31;20.98;;;11.55;;
44116;SDS011;29781;49.480;8.512;2023-09-12T04:16:57;19.70;;;10.13;;
44116;SDS011;29781;49.480;8.512;2023-09-12T04:19:23;30.10;;;13.23;;
44116;SDS011;29781;49.480;8.512;2023-09-12T04:21:48;22.50;;;12.25;;
44116;SDS011;29781;49.480;8.512;2023-09-12T04:24:14;18.95;;;12.30;;
44116;SDS011;29781;49.480;8.512;2023-09-12T04:26:40;24.77;;;12.05;;
44116;SDS011;29781;49.480;8.512;2023-09-12T04:29:06;20.27;;;12.20;;
44116;SDS011;29781;49.480;8.512;2023-09-12T04:31:32;22.90;;;11.65;;
44116;SDS011;29781;49.480;8.512;2023-09-12T04:33:57;20.48;;;11.40;;
44116;SDS011;29781;49.480;8.512;2023-09-12T04:36:23;26.70;;;11.52;;
44116;SDS011;29781;49.480;8.512;2023-09-12T04:38:48;21.70;;;10.93;;
44116;SDS011;29781;49.480;8.512;2023-09-12T04:41:14;25.15;;;11.77;;
44116;SDS011;29781;49.480;8.512;2023-09-12T04:43:42;22.27;;;11.30;;
44116;SDS011;29781;49.480;8.512;2023-09-12T04:46:10;18.33;;;11.43;;
44116;SDS011;29781;49.480;8.512;2023-09-12T04:48:36;24.08;;;11.15;;
44116;SDS011;29781;49.480;8.512;2023-09-12T04:51:02;20.25;;;10.80;;
44116;SDS011;29781;49.480;8.512;2023-09-12T04:53:28;25.70;;;11.48;;
44116;SDS011;29781;49.480;8.512;2023-09-12T04:55:59;20.42;;;11.73;;
44116;SDS011;29781;49.480;8.512;2023-09-12T04:58:25;19.25;;;11.90;;
44116;SDS011;29781;49.480;8.512;2023-09-12T05:00:50;17.60;;;11.45;;
44116;SDS011;29781;49.480;8.512;2023-09-12T05:03:16;17.88;;;12.23;;
44116;SDS011;29781;49.480;8.512;2023-09-12T05:05:41;21.15;;;11.30;;
44116;SDS011;29781;49.480;8.512;2023-09-12T05:08:10;25.95;;;12.52;;
44116;SDS011;29781;49.480;8.512;2023-09-12T05:10:35;26.17;;;13.10;;
44116;SDS011;29781;49.480;8.512;2023-09-12T05:13:03;23.20;;;12.32;;
44116;SDS011;29781;49.480;8.512;2023-09-12T05:15:29;19.70;;;12.57;;
44116;SDS011;29781;49.480;8.512;2023-09-12T05:17:55;25.75;;;12.25;;
44116;SDS011;29781;49.480;8.512;2023-09-12T05:20:20;20.08;;;11.65;;
44116;SDS011;29781;49.480;8.512;2023-09-12T05:22:46;19.50;;;11.63;;
44116;SDS011;29781;49.480;8.512;2023-09-12T05:25:11;27.83;;;13.35;;
44116;SDS011;29781;49.480;8.512;2023-09-12T05:27:37;20.15;;;12.57;;
44116;SDS011;29781;49.480;8.512;2023-09-12T05:30:02;23.33;;;12.60;;
44116;SDS011;29781;49.480;8.512;2023-09-12T05:32:28;22.80;;;12.68;;
44116;SDS011;29781;49.480;8.512;2023-09-12T05:34:54;22.17;;;12.00;;
44116;SDS011;29781;49.480;8.512;2023-09-12T05:37:19;38.50;;;14.07;;
44116;SDS011;29781;49.480;8.512;2023-09-12T05:39:45;35.33;;;11.82;;
44116;SDS011;29781;49.480;8.512;2023-09-12T05:42:11;31.45;;;12.77;;
44116;SDS011;29781;49.480;8.512;2023-09-12T05:44:37;26.25;;;13.35;;
44116;SDS011;29781;49.480;8.512;2023-09-12T05:47:02;27.60;;;13.15;;
44116;SDS011;29781;49.480;8.512;2023-09-12T05:49:28;22.70;;;12.45;;
44116;SDS011;29781;49.480;8.512;2023-09-12T05:51:54;33.58;;;12.73;;
44116;SDS011;29781;49.480;8.512;2023-09-12T05:54:19;24.23;;;13.50;;
44116;SDS011;29781;49.480;8.512;2023-09-12T05:56:45;22.05;;;12.90;;
44116;SDS011;29781;49.480;8.512;2023-09-12T05:59:12;21.48;;;13.02;;
44116;SDS011;29781;49.480;8.512;2023-09-12T06:01:38;24.10;;;13.05;;
44116;SDS011;29781;49.480;8.512;2023-09-12T06:04:04;21.05;;;11.60;;
44116;SDS011;29781;49.480;8.512;2023-09-12T06:06:29;22.02;;;12.40;;
44116;SDS011;29781;49.480;8.512;2023-09-12T06:08:55;25.20;;;13.27;;
44116;SDS011;29781;49.480;8.512;2023-09-12T06:11:21;30.05;;;14.25;;
44116;SDS011;29781;49.480;8.512;2023-09-12T06:13:47;23.85;;;13.88;;
44116;SDS011;29781;49.480;8.512;2023-09-12T06:16:12;20.90;;;13.20;;
44116;SDS011;29781;49.480;8.512;2023-09-12T06:18:38;26.63;;;14.70;;
44116;SDS011;29781;49.480;8.512;2023-09-12T06:21:03;25.98;;;14.15;;
44116;SDS011;29781;49.480;8.512;2023-09-12T06:23:31;26.60;;;13.75;;
44116;SDS011;29781;49.480;8.512;2023-09-12T06:25:56;25.98;;;12.80;;
44116;SDS011;29781;49.480;8.512;2023-09-12T06:28:29;23.52;;;13.05;;
44116;SDS011;29781;49.480;8.512;2023-09-12T06:30:55;19.88;;;13.63;;
44116;SDS011;29781;49.480;8.512;2023-09-12T06:33:22;24.45;;;12.60;;
44116;SDS011;29781;49.480;8.512;2023-09-12T06:35:48;21.20;;;12.98;;
44116;SDS011;29781;49.480;8.512;2023-09-12T06:38:15;22.77;;;13.95;;
44116;SDS011;29781;49.480;8.512;2023-09-12T06:40:42;25.38;;;14.10;;
44116;SDS011;29781;49.480;8.512;2023-09-12T06:43:08;26.45;;;12.93;;
44116;SDS011;29781;49.480;8.512;2023-09-12T06:45:33;21.13;;;13.05;;
44116;SDS011;29781;49.480;8.512;2023-09-12T06:48:02;24.42;;;13.38;;
44116;SDS011;29781;49.480;8.512;2023-09-12T06:50:28;21.60;;;13.32;;
44116;SDS011;29781;49.480;8.512;2023-09-12T06:52:54;30.83;;;13.93;;
44116;SDS011;29781;49.480;8.512;2023-09-12T06:55:19;26.50;;;13.73;;
44116;SDS011;29781;49.480;8.512;2023-09-12T06:57:45;34.08;;;15.02;;
44116;SDS011;29781;49.480;8.512;2023-09-12T07:00:11;26.77;;;14.93;;
44116;SDS011;29781;49.480;8.512;2023-09-12T07:02:37;27.80;;;14.60;;
44116;SDS011;29781;49.480;8.512;2023-09-12T07:05:03;25.13;;;14.65;;
44116;SDS011;29781;49.480;8.512;2023-09-12T07:07:29;25.77;;;14.95;;
44116;SDS011;29781;49.480;8.512;2023-09-12T07:09:55;30.45;;;15.27;;
44116;SDS011;29781;49.480;8.512;2023-09-12T07:12:21;27.88;;;15.73;;
44116;SDS011;29781;49.480;8.512;2023-09-12T07:14:47;30.48;;;14.25;;
44116;SDS011;29781;49.480;8.512;2023-09-12T07:17:12;36.00;;;17.17;;
44116;SDS011;29781;49.480;8.512;2023-09-12T07:19:38;26.52;;;15.45;;
44116;SDS011;29781;49.480;8.512;2023-09-12T07:22:03;27.80;;;15.40;;
44116;SDS011;29781;49.480;8.512;2023-09-12T07:24:29;28.73;;;15.38;;
44116;SDS011;29781;49.480;8.512;2023-09-12T07:26:54;29.45;;;16.05;;
44116;SDS011;29781;49.480;8.512;2023-09-12T07:29:20;32.58;;;17.80;;
44116;SDS011;29781;49.480;8.512;2023-09-12T07:31:45;23.55;;;15.48;;
44116;SDS011;29781;49.480;8.512;2023-09-12T07:34:11;26.30;;;15.90;;
44116;SDS011;29781;49.480;8.512;2023-09-12T07:36:39;30.40;;;17.20;;
44116;SDS011;29781;49.480;8.512;2023-09-12T07:39:05;30.83;;;17.08;;
44116;SDS011;29781;49.480;8.512;2023-09-12T07:41:31;72.80;;;19.70;;
44116;SDS011;29781;49.480;8.512;2023-09-12T07:43:57;34.10;;;16.02;;
44116;SDS011;29781;49.480;8.512;2023-09-12T07:46:22;35.17;;;17.10;;
44116;SDS011;29781;49.480;8.512;2023-09-12T07:48:48;27.52;;;16.88;;
44116;SDS011;29781;49.480;8.512;2023-09-12T07:51:14;29.10;;;14.32;;
44116;SDS011;29781;49.480;8.512;2023-09-12T07:53:43;30.45;;;14.48;;
44116;SDS011;29781;49.480;8.512;2023-09-12T07:56:09;21.58;;;12.68;;
44116;SDS011;29781;49.480;8.512;2023-09-12T07:58:37;22.00;;;12.68;;
44116;SDS011;29781;49.480;8.512;2023-09-12T08:01:08;20.85;;;12.50;;
44116;SDS011;29781;49.480;8.512;2023-09-12T08:03:35;20.73;;;12.23;;
44116;SDS011;29781;49.480;8.512;2023-09-12T08:06:01;20.58;;;11.90;;
44116;SDS011;29781;49.480;8.512;2023-09-12T08:08:28;19.95;;;11.00;;
44116;SDS011;29781;49.480;8.512;2023-09-12T08:10:53;23.17;;;11.77;;
44116;SDS011;29781;49.480;8.512;2023-09-12T08:13:19;19.77;;;11.07;;
44116;SDS011;29781;49.480;8.512;2023-09-12T08:15:45;25.00;;;11.85;;
44116;SDS011;29781;49.480;8.512;2023-09-12T08:18:10;19.40;;;10.88;;
44116;SDS011;29781;49.480;8.512;2023-09-12T08:20:36;21.38;;;11.00;;
44116;SDS011;29781;49.480;8.512;2023-09-12T08:23:02;19.80;;;10.85;;
44116;SDS011;29781;49.480;8.512;2023-09-12T08:25:28;16.65;;;11.27;;
44116;SDS011;29781;49.480;8.512;2023-09-12T08:27:53;16.77;;;11.25;;
44116;SDS011;29781;49.480;8.512;2023-09-12T08:30:19;16.80;;;10.45;;
44116;SDS011;29781;49.480;8.512;2023-09-12T08:32:45;19.10;;;11.02;;
44116;SDS011;29781;49.480;8.512;2023-09-12T08:35:13;15.70;;;10.43;;
44116;SDS011;29781;49.480;8.512;2023-09-12T08:37:39;18.67;;;10.25;;
44116;SDS011;29781;49.480;8.512;2023-09-12T08:40:07;17.58;;;10.88;;
44116;SDS011;29781;49.480;8.512;2023-09-12T08:42:36;19.15;;;11.07;;
44116;SDS011;29781;49.480;8.512;2023-09-12T08:45:13;15.40;;;10.05;;
44116;SDS011;29781;49.480;8.512;2023-09-12T08:47:41;16.83;;;11.35;;
44116;SDS011;29781;49.480;8.512;2023-09-12T08:50:11;20.77;;;11.00;;
44116;SDS011;29781;49.480;8.512;2023-09-12T08:52:39;21.38;;;10.95;;
44116;SDS011;29781;49.480;8.512;2023-09-12T08:55:06;21.50;;;11.98;;
44116;SDS011;29781;49.480;8.512;2023-09-12T08:57:32;19.83;;;11.98;;
44116;SDS011;29781;49.480;8.512;2023-09-12T09:00:00;19.02;;;11.45;;
44116;SDS011;29781;49.480;8.512;2023-09-12T09:02:42;17.52;;;11.13;;
44116;SDS011;29781;49.480;8.512;2023-09-12T09:05:08;17.52;;;11.35;;
44116;SDS011;29781;49.480;8.512;2023-09-12T09:07:39;15.40;;;11.40;;
44116;SDS011;29781;49.480;8.512;2023-09-12T09:10:06;22.90;;;10.75;;
44116;SDS011;29781;49.480;8.512;2023-09-12T09:12:35;17.90;;;10.63;;
44116;SDS011;29781;49.480;8.512;2023-09-12T09:15:21;20.13;;;10.73;;
44116;SDS011;29781;49.480;8.512;2023-09-12T09:17:54;19.80;;;11.45;;
44116;SDS011;29781;49.480;8.512;2023-09-12T09:23:03;22.38;;;11.05;;
44116;SDS011;29781;49.480;8.512;2023-09-12T09:25:30;14.90;;;10.68;;
44116;SDS011;29781;49.480;8.512;2023-09-12T09:28:02;19.58;;;11.73;;
44116;SDS011;29781;49.480;8.512;2023-09-12T09:30:50;15.13;;;10.18;;
44116;SDS011;29781;49.480;8.512;2023-09-12T09:33:17;15.48;;;10.40;;
44116;SDS011;29781;49.480;8.512;2023-09-12T09:35:45;16.42;;;11.40;;
44116;SDS011;29781;49.480;8.512;2023-09-12T09:38:12;16.45;;;10.25;;
44116;SDS011;29781;49.480;8.512;2023-09-12T09:40:44;15.68;;;9.63;;
44116;SDS011;29781;49.480;8.512;2023-09-12T09:43:10;19.75;;;9.80;;
44116;SDS011;29781;49.480;8.512;2023-09-12T09:45:43;17.92;;;10.18;;
44116;SDS011;29781;49.480;8.512;2023-09-12T09:48:10;16.70;;;9.93;;
44116;SDS011;29781;49.480;8.512;2023-09-12T09:50:42;15.55;;;10.75;;
44116;SDS011;29781;49.480;8.512;2023-09-12T09:53:07;14.93;;;10.25;;
44116;SDS011;29781;49.480;8.512;2023-09-12T09:55:35;16.77;;;10.70;;
44116;SDS011;29781;49.480;8.512;2023-09-12T09:58:00;16.25;;;10.70;;
44116;SDS011;29781;49.480;8.512;2023-09-12T10:00:26;20.70;;;10.10;;
44116;SDS011;29781;49.480;8.512;2023-09-12T10:02:53;17.08;;;10.48;;
44116;SDS011;29781;49.480;8.512;2023-09-12T10:05:21;18.10;;;10.07;;
44116;SDS011;29781;49.480;8.512;2023-09-12T10:07:48;16.48;;;10.30;;
44116;SDS011;29781;49.480;8.512;2023-09-12T10:10:16;19.48;;;10.07;;
44116;SDS011;29781;49.480;8.512;2023-09-12T10:12:50;14.43;;;10.68;;
44116;SDS011;29781;49.480;8.512;2023-09-12T10:15:20;15.70;;;9.73;;
44116;SDS011;29781;49.480;8.512;2023-09-12T10:17:51;19.27;;;10.70;;
44116;SDS011;29781;49.480;8.512;2023-09-12T10:20:25;13.73;;;10.80;;
44116;SDS011;29781;49.480;8.512;2023-09-12T10:25:27;11.32;;;10.10;;
44116;SDS011;29781;49.480;8.512;2023-09-12T10:27:54;13.35;;;10.48;;
44116;SDS011;29781;49.480;8.512;2023-09-12T10:30:21;14.15;;;9.65;;
44116;SDS011;29781;49.480;8.512;2023-09-12T10:32:47;16.85;;;11.07;;
44116;SDS011;29781;49.480;8.512;2023-09-12T10:35:14;14.57;;;10.68;;
44116;SDS011;29781;49.480;8.512;2023-09-12T10:37:41;12.82;;;10.00;;
44116;SDS011;29781;49.480;8.512;2023-09-12T10:40:09;20.63;;;11.45;;
44116;SDS011;29781;49.480;8.512;2023-09-12T10:42:36;21.15;;;10.60;;
44116;SDS011;29781;49.480;8.512;2023-09-12T10:45:02;20.58;;;10.98;;
44116;SDS011;29781;49.480;8.512;2023-09-12T10:47:32;18.90;;;10.88;;
44116;SDS011;29781;49.480;8.512;2023-09-12T10:49:58;16.58;;;11.35;;
44116;SDS011;29781;49.480;8.512;2023-09-12T10:52:27;19.20;;;12.15;;
44116;SDS011;29781;49.480;8.512;2023-09-12T10:54:53;15.10;;;11.43;;
44116;SDS011;29781;49.480;8.512;2023-09-12T10:57:18;16.10;;;10.90;;
44116;SDS011;29781;49.480;8.512;2023-09-12T11:02:39;17.55;;;11.18;;
44116;SDS011;29781;49.480;8.512;2023-09-12T11:05:50;20.05;;;12.05;;
44116;SDS011;29781;49.480;8.512;2023-09-12T11:07:57;14.10;;;11.60;;
44116;SDS011;29781;49.480;8.512;2023-09-12T11:10:24;13.07;;;10.95;;
44116;SDS011;29781;49.480;8.512;2023-09-12T11:12:54;17.67;;;11.68;;
44116;SDS011;29781;49.480;8.512;2023-09-12T11:15:25;17.02;;;11.07;;
44116;SDS011;29781;49.480;8.512;2023-09-12T11:18:04;17.08;;;10.57;;
44116;SDS011;29781;49.480;8.512;2023-09-12T11:23:24;20.42;;;11.18;;
44116;SDS011;29781;49.480;8.512;2023-09-12T11:26:06;17.98;;;10.82;;
44116;SDS011;29781;49.480;8.512;2023-09-12T11:28:32;14.68;;;11.38;;
44116;SDS011;29781;49.480;8.512;2023-09-12T11:30:58;14.23;;;11.32;;
44116;SDS011;29781;49.480;8.512;2023-09-12T11:33:24;18.55;;;10.88;;
44116;SDS011;29781;49.480;8.512;2023-09-12T11:35:54;13.45;;;10.68;;
44116;SDS011;29781;49.480;8.512;2023-09-12T11:38:26;15.30;;;10.15;;
44116;SDS011;29781;49.480;8.512;2023-09-12T11:40:54;17.35;;;9.75;;
44116;SDS011;29781;49.480;8.512;2023-09-12T11:43:22;13.88;;;9.75;;
44116;SDS011;29781;49.480;8.512;2023-09-12T11:45:49;12.30;;;10.37;;
44116;SDS011;29781;49.480;8.512;2023-09-12T11:48:16;12.80;;;10.45;;
44116;SDS011;29781;49.480;8.512;2023-09-12T11:50:42;17.85;;;11.32;;
44116;SDS011;29781;49.480;8.512;2023-09-12T11:53:13;15.90;;;11.50;;
44116;SDS011;29781;49.480;8.512;2023-09-12T11:55:43;14.32;;;10.80;;
44116;SDS011;29781;49.480;8.512;2023-09-12T11:58:10;17.45;;;10.00;;
44116;SDS011;29781;49.480;8.512;2023-09-12T12:00:37;19.35;;;11.38;;
44116;SDS011;29781;49.480;8.512;2023-09-12T12:03:19;17.25;;;10.10;;
44116;SDS011;29781;49.480;8.512;2023-09-12T12:05:46;14.93;;;9.25;;
44116;SDS011;29781;49.480;8.512;2023-09-12T12:08:13;20.83;;;9.95;;
44116;SDS011;29781;49.480;8.512;2023-09-12T12:10:39;11.65;;;9.60;;
44116;SDS011;29781;49.480;8.512;2023-09-12T12:13:06;14.07;;;9.90;;
44116;SDS011;29781;49.480;8.512;2023-09-12T12:18:01;11.98;;;9.57;;
44116;SDS011;29781;49.480;8.512;2023-09-12T12:20:33;13.02;;;10.07;;
44116;SDS011;29781;49.480;8.512;2023-09-12T12:22:59;13.43;;;9.85;;
44116;SDS011;29781;49.480;8.512;2023-09-12T12:25:24;30.08;;;10.88;;
44116;SDS011;29781;49.480;8.512;2023-09-12T12:27:50;14.70;;;10.30;;
44116;SDS011;29781;49.480;8.512;2023-09-12T12:30:16;120.20;;;14.50;;
44116;SDS011;29781;49.480;8.512;2023-09-12T12:32:44;30.38;;;11.80;;
44116;SDS011;29781;49.480;8.512;2023-09-12T12:35:18;20.13;;;9.82;;
44116;SDS011;29781;49.480;8.512;2023-09-12T12:37:44;15.55;;;9.57;;
44116;SDS011;29781;49.480;8.512;2023-09-12T12:40:13;14.77;;;10.18;;
44116;SDS011;29781;49.480;8.512;2023-09-12T12:42:39;16.17;;;9.73;;
44116;SDS011;29781;49.480;8.512;2023-09-12T12:45:17;44.08;;;11.00;;
44116;SDS011;29781;49.480;8.512;2023-09-12T12:47:44;16.70;;;10.18;;
44116;SDS011;29781;49.480;8.512;2023-09-12T12:50:11;36.10;;;11.38;;
44116;SDS011;29781;49.480;8.512;2023-09-12T12:52:38;14.25;;;9.23;;
44116;SDS011;29781;49.480;8.512;2023-09-12T12:55:07;13.38;;;9.48;;
44116;SDS011;29781;49.480;8.512;2023-09-12T12:57:43;13.75;;;10.05;;
44116;SDS011;29781;49.480;8.512;2023-09-12T13:00:10;20.17;;;10.35;;
44116;SDS011;29781;49.480;8.512;2023-09-12T13:02:38;31.13;;;11.43;;
44116;SDS011;29781;49.480;8.512;2023-09-12T13:05:18;20.88;;;9.95;;
44116;SDS011;29781;49.480;8.512;2023-09-12T13:07:51;20.77;;;10.85;;
44116;SDS011;29781;49.480;8.512;2023-09-12T13:10:18;22.05;;;9.57;;
44116;SDS011;29781;49.480;8.512;2023-09-12T13:12:44;25.35;;;10.13;;
44116;SDS011;29781;49.480;8.512;2023-09-12T13:15:10;22.35;;;9.25;;
44116;SDS011;29781;49.480;8.512;2023-09-12T13:17:36;16.73;;;8.95;;
44116;SDS011;29781;49.480;8.512;2023-09-12T13:20:02;18.00;;;9.55;;
44116;SDS011;29781;49.480;8.512;2023-09-12T13:22:29;16.77;;;9.70;;
44116;SDS011;29781;49.480;8.512;2023-09-12T13:24:54;13.23;;;9.30;;
44116;SDS011;29781;49.480;8.512;2023-09-12T13:27:20;11.02;;;8.95;;
44116;SDS011;29781;49.480;8.512;2023-09-12T13:29:46;15.35;;;9.30;;
44116;SDS011;29781;49.480;8.512;2023-09-12T13:32:13;14.60;;;9.60;;
44116;SDS011;29781;49.480;8.512;2023-09-12T13:34:40;63.80;;;11.95;;
44116;SDS011;29781;49.480;8.512;2023-09-12T13:37:06;19.63;;;9.25;;
44116;SDS011;29781;49.480;8.512;2023-09-12T13:39:31;12.20;;;8.68;;
44116;SDS011;29781;49.480;8.512;2023-09-12T13:41:57;15.55;;;9.48;;
44116;SDS011;29781;49.480;8.512;2023-09-12T13:44:24;16.63;;;9.15;;
44116;SDS011;29781;49.480;8.512;2023-09-12T13:46:50;12.25;;;8.60;;
44116;SDS011;29781;49.480;8.512;2023-09-12T13:49:16;57.58;;;11.30;;
44116;SDS011;29781;49.480;8.512;2023-09-12T13:51:41;20.05;;;9.57;;
44116;SDS011;29781;49.480;8.512;2023-09-12T13:54:10;61.85;;;10.98;;
44116;SDS011;29781;49.480;8.512;2023-09-12T13:56:40;49.85;;;10.40;;
44116;SDS011;29781;49.480;8.512;2023-09-12T13:59:05;42.58;;;10.23;;
44116;SDS011;29781;49.480;8.512;2023-09-12T14:01:31;17.77;;;9.32;;
44116;SDS011;29781;49.480;8.512;2023-09-12T14:03:57;17.80;;;9.48;;
44116;SDS011;29781;49.480;8.512;2023-09-12T14:06:22;11.50;;;8.82;;
44116;SDS011;29781;49.480;8.512;2023-09-12T14:08:48;12.90;;;9.57;;
44116;SDS011;29781;49.480;8.512;2023-09-12T14:11:14;11.23;;;8.43;;
44116;SDS011;29781;49.480;8.512;2023-09-12T14:13:39;12.18;;;8.80;;
44116;SDS011;29781;49.480;8.512;2023-09-12T14:16:04;16.48;;;9.35;;
44116;SDS011;29781;49.480;8.512;2023-09-12T14:18:30;11.68;;;8.75;;
44116;SDS011;29781;49.480;8.512;2023-09-12T14:20:56;9.15;;;8.27;;
44116;SDS011;29781;49.480;8.512;2023-09-12T14:23:22;15.05;;;9.20;;
44116;SDS011;29781;49.480;8.512;2023-09-12T14:25:47;17.38;;;8.60;;
44116;SDS011;29781;49.480;8.512;2023-09-12T14:28:13;11.10;;;8.25;;
44116;SDS011;29781;49.480;8.512;2023-09-12T14:30:38;68.05;;;10.50;;
44116;SDS011;29781;49.480;8.512;2023-09-12T14:33:09;13.88;;;9.00;;
44116;SDS011;29781;49.480;8.512;2023-09-12T14:35:34;11.13;;;9.07;;
44116;SDS011;29781;49.480;8.512;2023-09-12T14:38:01;20.52;;;9.15;;
44116;SDS011;29781;49.480;8.512;2023-09-12T14:40:27;13.35;;;8.68;;